sensor_id;sensor_type;location;lat;lon;timestamp;temperature;humidity
70986;DHT22;58645;43.068;25.610;2023-02-28T00:00:21;7.70;99.90
70986;DHT22;58645;43.068;25.610;2023-02-28T00:02:47;7.60;99.90
70986;DHT22;58645;43.068;25.610;2023-02-28T00:05:16;7.60;99.90
70986;DHT22;58645;43.068;25.610;2023-02-28T00:07:42;7.60;99.90
70986;DHT22;58645;43.068;25.610;2023-02-28T00:10:11;7.60;99.90
70986;DHT22;58645;43.068;25.610;2023-02-28T00:12:37;7.60;99.90
70986;DHT22;58645;43.068;25.610;2023-02-28T00:15:08;7.50;99.90
70986;DHT22;58645;43.068;25.610;2023-02-28T00:17:35;7.60;99.90
70986;DHT22;58645;43.068;25.610;2023-02-28T00:20:01;7.60;99.90
70986;DHT22;58645;43.068;25.610;2023-02-28T00:22:27;7.60;99.90
70986;DHT22;58645;43.068;25.610;2023-02-28T00:24:53;7.60;99.90
70986;DHT22;58645;43.068;25.610;2023-02-28T00:27:19;7.70;99.90
70986;DHT22;58645;43.068;25.610;2023-02-28T00:29:46;7.70;99.90
70986;DHT22;58645;43.068;25.610;2023-02-28T00:32:12;7.60;99.90
70986;DHT22;58645;43.068;25.610;2023-02-28T00:34:38;7.60;99.90
70986;DHT22;58645;43.068;25.610;2023-02-28T00:37:05;7.60;99.90
70986;DHT22;58645;43.068;25.610;2023-02-28T00:39:34;7.70;99.90
70986;DHT22;58645;43.068;25.610;2023-02-28T00:42:00;7.70;99.90
70986;DHT22;58645;43.068;25.610;2023-02-28T00:44:26;7.70;99.90
70986;DHT22;58645;43.068;25.610;2023-02-28T00:46:51;7.70;99.90
70986;DHT22;58645;43.068;25.610;2023-02-28T00:49:19;7.70;99.90
70986;DHT22;58645;43.068;25.610;2023-02-28T00:51:46;7.70;99.90
70986;DHT22;58645;43.068;25.610;2023-02-28T00:54:11;7.70;99.90
70986;DHT22;58645;43.068;25.610;2023-02-28T00:56:37;7.70;99.90
70986;DHT22;58645;43.068;25.610;2023-02-28T00:59:03;7.70;99.90
70986;DHT22;58645;43.068;25.610;2023-02-28T01:01:29;7.70;99.90
70986;DHT22;58645;43.068;25.610;2023-02-28T01:03:54;7.70;99.90
70986;DHT22;58645;43.068;25.610;2023-02-28T01:06:20;7.80;99.90
70986;DHT22;58645;43.068;25.610;2023-02-28T01:08:46;7.80;99.90
70986;DHT22;58645;43.068;25.610;2023-02-28T01:11:13;7.80;99.90
70986;DHT22;58645;43.068;25.610;2023-02-28T01:13:40;7.80;99.90
70986;DHT22;58645;43.068;25.610;2023-02-28T01:16:06;7.80;99.90
70986;DHT22;58645;43.068;25.610;2023-02-28T01:18:32;7.80;99.90
70986;DHT22;58645;43.068;25.610;2023-02-28T01:20:58;7.80;99.90
70986;DHT22;58645;43.068;25.610;2023-02-28T01:23:28;7.90;99.90
70986;DHT22;58645;43.068;25.610;2023-02-28T01:25:53;7.90;99.90
70986;DHT22;58645;43.068;25.610;2023-02-28T01:28:19;7.90;99.90
70986;DHT22;58645;43.068;25.610;2023-02-28T01:30:49;7.90;99.90
70986;DHT22;58645;43.068;25.610;2023-02-28T01:33:15;7.80;99.90
70986;DHT22;58645;43.068;25.610;2023-02-28T01:35:41;7.90;99.90
70986;DHT22;58645;43.068;25.610;2023-02-28T01:38:07;7.90;99.90
70986;DHT22;58645;43.068;25.610;2023-02-28T01:40:33;7.90;99.90
70986;DHT22;58645;43.068;25.610;2023-02-28T01:42:58;7.90;99.90
70986;DHT22;58645;43.068;25.610;2023-02-28T01:45:27;7.80;99.90
70986;DHT22;58645;43.068;25.610;2023-02-28T01:48:06;7.80;99.90
70986;DHT22;58645;43.068;25.610;2023-02-28T01:50:37;7.70;99.90
70986;DHT22;58645;43.068;25.610;2023-02-28T01:53:07;7.70;99.90
70986;DHT22;58645;43.068;25.610;2023-02-28T01:55:33;7.70;99.90
70986;DHT22;58645;43.068;25.610;2023-02-28T01:58:02;7.70;99.90
70986;DHT22;58645;43.068;25.610;2023-02-28T02:00:29;7.60;99.90
70986;DHT22;58645;43.068;25.610;2023-02-28T02:03:01;7.60;99.90
70986;DHT22;58645;43.068;25.610;2023-02-28T02:05:30;7.60;99.90
70986;DHT22;58645;43.068;25.610;2023-02-28T02:08:06;7.60;99.90
70986;DHT22;58645;43.068;25.610;2023-02-28T02:10:43;7.60;99.90
70986;DHT22;58645;43.068;25.610;2023-02-28T02:27:14;7.60;99.90
70986;DHT22;58645;43.068;25.610;2023-02-28T02:41:53;7.60;99.90
70986;DHT22;58645;43.068;25.610;2023-02-28T02:44:47;7.60;99.90
70986;DHT22;58645;43.068;25.610;2023-02-28T02:47:17;7.60;99.90
70986;DHT22;58645;43.068;25.610;2023-02-28T02:49:51;7.60;99.90
70986;DHT22;58645;43.068;25.610;2023-02-28T02:52:22;7.60;99.90
70986;DHT22;58645;43.068;25.610;2023-02-28T02:54:50;7.70;99.90
70986;DHT22;58645;43.068;25.610;2023-02-28T02:57:36;7.70;99.90
70986;DHT22;58645;43.068;25.610;2023-02-28T03:00:05;7.70;99.90
70986;DHT22;58645;43.068;25.610;2023-02-28T03:02:35;7.70;99.90
70986;DHT22;58645;43.068;25.610;2023-02-28T03:05:06;7.70;99.90
70986;DHT22;58645;43.068;25.610;2023-02-28T03:07:33;7.70;99.90
70986;DHT22;58645;43.068;25.610;2023-02-28T03:09:59;7.70;99.90
70986;DHT22;58645;43.068;25.610;2023-02-28T03:12:34;7.60;99.90
70986;DHT22;58645;43.068;25.610;2023-02-28T03:15:25;7.70;99.90
70986;DHT22;58645;43.068;25.610;2023-02-28T03:18:10;7.60;99.90
70986;DHT22;58645;43.068;25.610;2023-02-28T03:20:56;7.70;99.90
70986;DHT22;58645;43.068;25.610;2023-02-28T03:23:52;7.70;99.90
70986;DHT22;58645;43.068;25.610;2023-02-28T03:26:26;7.70;99.90
70986;DHT22;58645;43.068;25.610;2023-02-28T03:29:00;7.70;99.90
70986;DHT22;58645;43.068;25.610;2023-02-28T03:31:36;7.70;99.90
70986;DHT22;58645;43.068;25.610;2023-02-28T03:34:08;7.70;99.90
70986;DHT22;58645;43.068;25.610;2023-02-28T03:36:38;7.70;99.90
70986;DHT22;58645;43.068;25.610;2023-02-28T03:39:13;7.70;99.90
70986;DHT22;58645;43.068;25.610;2023-02-28T03:41:49;7.60;99.90
70986;DHT22;58645;43.068;25.610;2023-02-28T03:44:41;7.60;99.90
70986;DHT22;58645;43.068;25.610;2023-02-28T03:50:23;7.50;99.90
70986;DHT22;58645;43.068;25.610;2023-02-28T03:52:52;7.50;99.90
70986;DHT22;58645;43.068;25.610;2023-02-28T03:55:19;7.40;99.90
70986;DHT22;58645;43.068;25.610;2023-02-28T03:58:03;7.40;99.90
70986;DHT22;58645;43.068;25.610;2023-02-28T04:00:35;7.40;99.90
70986;DHT22;58645;43.068;25.610;2023-02-28T04:03:04;7.40;99.90
70986;DHT22;58645;43.068;25.610;2023-02-28T04:05:30;7.40;99.90
70986;DHT22;58645;43.068;25.610;2023-02-28T04:08:04;7.30;99.90
70986;DHT22;58645;43.068;25.610;2023-02-28T04:10:29;7.30;99.90
70986;DHT22;58645;43.068;25.610;2023-02-28T04:12:55;7.20;99.90
70986;DHT22;58645;43.068;25.610;2023-02-28T04:15:21;7.20;99.90
70986;DHT22;58645;43.068;25.610;2023-02-28T04:17:48;7.20;99.90
70986;DHT22;58645;43.068;25.610;2023-02-28T04:20:14;7.20;99.90
70986;DHT22;58645;43.068;25.610;2023-02-28T04:22:40;7.10;99.90
70986;DHT22;58645;43.068;25.610;2023-02-28T04:25:06;7.10;99.90
70986;DHT22;58645;43.068;25.610;2023-02-28T04:27:32;7.10;99.90
70986;DHT22;58645;43.068;25.610;2023-02-28T04:29:58;7.10;99.90
70986;DHT22;58645;43.068;25.610;2023-02-28T04:32:23;7.00;99.90
70986;DHT22;58645;43.068;25.610;2023-02-28T04:34:49;7.00;99.90
70986;DHT22;58645;43.068;25.610;2023-02-28T04:37:15;7.00;99.90
70986;DHT22;58645;43.068;25.610;2023-02-28T04:39:41;7.00;99.90
70986;DHT22;58645;43.068;25.610;2023-02-28T04:42:07;7.00;99.90
70986;DHT22;58645;43.068;25.610;2023-02-28T04:44:34;7.00;99.90
70986;DHT22;58645;43.068;25.610;2023-02-28T04:46:59;7.00;99.90
70986;DHT22;58645;43.068;25.610;2023-02-28T04:49:25;7.00;99.90
70986;DHT22;58645;43.068;25.610;2023-02-28T04:51:51;7.00;99.90
70986;DHT22;58645;43.068;25.610;2023-02-28T04:54:18;7.00;99.90
70986;DHT22;58645;43.068;25.610;2023-02-28T04:56:45;7.00;99.90
70986;DHT22;58645;43.068;25.610;2023-02-28T04:59:11;7.00;99.90
70986;DHT22;58645;43.068;25.610;2023-02-28T05:01:36;7.00;99.90
70986;DHT22;58645;43.068;25.610;2023-02-28T05:04:04;7.00;99.90
70986;DHT22;58645;43.068;25.610;2023-02-28T05:06:32;7.10;99.90
70986;DHT22;58645;43.068;25.610;2023-02-28T05:08:58;7.10;99.90
70986;DHT22;58645;43.068;25.610;2023-02-28T05:11:27;7.20;99.90
70986;DHT22;58645;43.068;25.610;2023-02-28T05:13:55;7.10;99.90
70986;DHT22;58645;43.068;25.610;2023-02-28T05:16:21;7.10;99.90
70986;DHT22;58645;43.068;25.610;2023-02-28T05:18:47;7.00;99.90
70986;DHT22;58645;43.068;25.610;2023-02-28T05:23:52;7.00;99.90
70986;DHT22;58645;43.068;25.610;2023-02-28T05:26:18;7.10;99.90
70986;DHT22;58645;43.068;25.610;2023-02-28T05:28:44;7.00;99.90
70986;DHT22;58645;43.068;25.610;2023-02-28T05:31:13;7.10;99.90
70986;DHT22;58645;43.068;25.610;2023-02-28T05:33:39;7.10;99.90
70986;DHT22;58645;43.068;25.610;2023-02-28T05:36:05;7.20;99.90
70986;DHT22;58645;43.068;25.610;2023-02-28T05:38:31;7.30;99.90
70986;DHT22;58645;43.068;25.610;2023-02-28T05:40:57;7.30;99.90
70986;DHT22;58645;43.068;25.610;2023-02-28T05:43:23;7.30;99.90
70986;DHT22;58645;43.068;25.610;2023-02-28T05:45:49;7.30;99.90
70986;DHT22;58645;43.068;25.610;2023-02-28T05:48:15;7.40;99.90
70986;DHT22;58645;43.068;25.610;2023-02-28T05:50:40;7.40;99.90
70986;DHT22;58645;43.068;25.610;2023-02-28T05:53:08;7.40;99.90
70986;DHT22;58645;43.068;25.610;2023-02-28T05:55:34;7.50;99.90
70986;DHT22;58645;43.068;25.610;2023-02-28T05:58:01;7.50;99.90
70986;DHT22;58645;43.068;25.610;2023-02-28T06:00:36;7.50;99.90
70986;DHT22;58645;43.068;25.610;2023-02-28T06:03:06;7.60;99.90
70986;DHT22;58645;43.068;25.610;2023-02-28T06:05:32;7.60;99.90
70986;DHT22;58645;43.068;25.610;2023-02-28T06:07:58;7.60;99.90
70986;DHT22;58645;43.068;25.610;2023-02-28T06:10:24;7.60;99.90
70986;DHT22;58645;43.068;25.610;2023-02-28T06:12:50;7.70;99.90
70986;DHT22;58645;43.068;25.610;2023-02-28T06:15:16;7.80;99.90
70986;DHT22;58645;43.068;25.610;2023-02-28T06:17:43;7.80;99.90
70986;DHT22;58645;43.068;25.610;2023-02-28T06:20:09;7.80;99.90
70986;DHT22;58645;43.068;25.610;2023-02-28T06:22:36;7.80;99.90
70986;DHT22;58645;43.068;25.610;2023-02-28T06:25:03;7.80;99.90
70986;DHT22;58645;43.068;25.610;2023-02-28T06:27:31;7.90;99.90
70986;DHT22;58645;43.068;25.610;2023-02-28T06:29:57;8.00;99.90
70986;DHT22;58645;43.068;25.610;2023-02-28T06:32:23;7.90;99.90
70986;DHT22;58645;43.068;25.610;2023-02-28T06:34:48;7.80;99.90
70986;DHT22;58645;43.068;25.610;2023-02-28T06:37:16;7.70;99.90
70986;DHT22;58645;43.068;25.610;2023-02-28T06:39:42;7.80;99.90
70986;DHT22;58645;43.068;25.610;2023-02-28T06:42:08;7.80;99.90
70986;DHT22;58645;43.068;25.610;2023-02-28T06:44:40;7.80;99.90
70986;DHT22;58645;43.068;25.610;2023-02-28T06:47:17;7.80;99.90
70986;DHT22;58645;43.068;25.610;2023-02-28T06:49:43;7.80;99.90
70986;DHT22;58645;43.068;25.610;2023-02-28T06:52:10;7.90;99.90
70986;DHT22;58645;43.068;25.610;2023-02-28T06:54:37;8.00;99.90
70986;DHT22;58645;43.068;25.610;2023-02-28T06:57:05;8.00;99.90
70986;DHT22;58645;43.068;25.610;2023-02-28T06:59:31;8.10;99.90
70986;DHT22;58645;43.068;25.610;2023-02-28T07:01:57;8.20;99.90
70986;DHT22;58645;43.068;25.610;2023-02-28T07:04:23;8.20;99.90
70986;DHT22;58645;43.068;25.610;2023-02-28T07:06:49;8.20;99.90
70986;DHT22;58645;43.068;25.610;2023-02-28T07:09:15;8.10;99.90
70986;DHT22;58645;43.068;25.610;2023-02-28T07:11:41;8.40;99.90
70986;DHT22;58645;43.068;25.610;2023-02-28T07:14:08;8.50;99.90
70986;DHT22;58645;43.068;25.610;2023-02-28T07:16:35;8.50;99.90
70986;DHT22;58645;43.068;25.610;2023-02-28T07:19:01;8.50;99.90
70986;DHT22;58645;43.068;25.610;2023-02-28T07:21:27;8.50;99.90
70986;DHT22;58645;43.068;25.610;2023-02-28T07:23:53;8.70;99.90
70986;DHT22;58645;43.068;25.610;2023-02-28T07:26:31;8.70;99.90
70986;DHT22;58645;43.068;25.610;2023-02-28T07:28:59;8.80;99.90
70986;DHT22;58645;43.068;25.610;2023-02-28T07:31:25;8.70;99.90
70986;DHT22;58645;43.068;25.610;2023-02-28T07:33:51;8.80;99.90
70986;DHT22;58645;43.068;25.610;2023-02-28T07:36:20;8.90;99.90
70986;DHT22;58645;43.068;25.610;2023-02-28T07:38:47;9.00;99.90
70986;DHT22;58645;43.068;25.610;2023-02-28T07:41:21;9.00;99.90
70986;DHT22;58645;43.068;25.610;2023-02-28T07:43:47;9.00;99.90
70986;DHT22;58645;43.068;25.610;2023-02-28T07:46:15;9.00;99.90
70986;DHT22;58645;43.068;25.610;2023-02-28T07:48:42;9.10;99.90
70986;DHT22;58645;43.068;25.610;2023-02-28T07:51:10;9.10;99.90
70986;DHT22;58645;43.068;25.610;2023-02-28T07:53:46;9.10;99.90
70986;DHT22;58645;43.068;25.610;2023-02-28T07:56:12;9.00;99.90
70986;DHT22;58645;43.068;25.610;2023-02-28T07:58:38;9.00;99.90
70986;DHT22;58645;43.068;25.610;2023-02-28T08:01:09;9.00;99.90
70986;DHT22;58645;43.068;25.610;2023-02-28T08:03:36;9.00;99.90
70986;DHT22;58645;43.068;25.610;2023-02-28T08:06:07;9.00;99.90
70986;DHT22;58645;43.068;25.610;2023-02-28T08:08:33;9.00;99.90
70986;DHT22;58645;43.068;25.610;2023-02-28T08:11:03;9.00;99.90
70986;DHT22;58645;43.068;25.610;2023-02-28T08:13:30;9.10;99.90
70986;DHT22;58645;43.068;25.610;2023-02-28T08:16:01;9.10;99.90
70986;DHT22;58645;43.068;25.610;2023-02-28T08:18:28;9.00;99.90
70986;DHT22;58645;43.068;25.610;2023-02-28T08:20:54;9.00;99.90
70986;DHT22;58645;43.068;25.610;2023-02-28T08:23:22;9.00;99.90
70986;DHT22;58645;43.068;25.610;2023-02-28T08:25:55;9.00;99.90
70986;DHT22;58645;43.068;25.610;2023-02-28T08:28:22;9.00;99.90
70986;DHT22;58645;43.068;25.610;2023-02-28T08:30:48;9.00;99.90
70986;DHT22;58645;43.068;25.610;2023-02-28T08:33:14;9.00;99.90
70986;DHT22;58645;43.068;25.610;2023-02-28T08:35:43;9.00;99.90
70986;DHT22;58645;43.068;25.610;2023-02-28T08:38:09;9.00;99.90
70986;DHT22;58645;43.068;25.610;2023-02-28T08:40:35;9.10;99.90
70986;DHT22;58645;43.068;25.610;2023-02-28T08:43:10;9.10;99.90
70986;DHT22;58645;43.068;25.610;2023-02-28T08:45:36;9.20;99.90
70986;DHT22;58645;43.068;25.610;2023-02-28T08:48:02;9.30;99.90
70986;DHT22;58645;43.068;25.610;2023-02-28T08:50:28;9.40;99.90
70986;DHT22;58645;43.068;25.610;2023-02-28T08:52:54;9.40;99.90
70986;DHT22;58645;43.068;25.610;2023-02-28T08:55:20;9.40;99.90
70986;DHT22;58645;43.068;25.610;2023-02-28T08:57:46;9.40;99.90
70986;DHT22;58645;43.068;25.610;2023-02-28T09:00:13;9.60;99.90
70986;DHT22;58645;43.068;25.610;2023-02-28T09:02:40;9.50;99.90
70986;DHT22;58645;43.068;25.610;2023-02-28T09:05:06;9.50;99.90
70986;DHT22;58645;43.068;25.610;2023-02-28T09:07:32;9.70;99.90
70986;DHT22;58645;43.068;25.610;2023-02-28T09:09:58;9.80;99.90
70986;DHT22;58645;43.068;25.610;2023-02-28T09:12:25;9.70;99.90
70986;DHT22;58645;43.068;25.610;2023-02-28T09:14:52;9.80;99.90
70986;DHT22;58645;43.068;25.610;2023-02-28T09:17:19;9.70;99.90
70986;DHT22;58645;43.068;25.610;2023-02-28T09:19:44;9.80;99.90
70986;DHT22;58645;43.068;25.610;2023-02-28T09:22:11;9.80;99.90
70986;DHT22;58645;43.068;25.610;2023-02-28T09:24:37;9.80;99.90
70986;DHT22;58645;43.068;25.610;2023-02-28T09:27:03;9.80;99.90
70986;DHT22;58645;43.068;25.610;2023-02-28T09:29:31;9.80;99.90
70986;DHT22;58645;43.068;25.610;2023-02-28T09:31:57;9.80;99.90
70986;DHT22;58645;43.068;25.610;2023-02-28T09:34:27;9.80;99.90
70986;DHT22;58645;43.068;25.610;2023-02-28T09:37:11;9.90;99.90
70986;DHT22;58645;43.068;25.610;2023-02-28T09:39:37;9.90;99.90
70986;DHT22;58645;43.068;25.610;2023-02-28T09:42:03;9.90;99.90
70986;DHT22;58645;43.068;25.610;2023-02-28T09:44:43;10.00;99.90
70986;DHT22;58645;43.068;25.610;2023-02-28T09:49:42;9.90;99.90
70986;DHT22;58645;43.068;25.610;2023-02-28T09:52:18;10.00;99.90
70986;DHT22;58645;43.068;25.610;2023-02-28T09:54:45;10.00;99.90
70986;DHT22;58645;43.068;25.610;2023-02-28T09:57:21;10.00;99.90
70986;DHT22;58645;43.068;25.610;2023-02-28T10:00:02;10.00;99.90
70986;DHT22;58645;43.068;25.610;2023-02-28T10:05:15;9.90;99.90
70986;DHT22;58645;43.068;25.610;2023-02-28T10:07:50;9.90;99.90
70986;DHT22;58645;43.068;25.610;2023-02-28T10:10:47;10.00;99.90
70986;DHT22;58645;43.068;25.610;2023-02-28T10:13:43;10.00;99.90
70986;DHT22;58645;43.068;25.610;2023-02-28T10:16:16;9.90;99.90
70986;DHT22;58645;43.068;25.610;2023-02-28T10:18:53;10.00;99.90
70986;DHT22;58645;43.068;25.610;2023-02-28T10:23:49;10.00;99.90
70986;DHT22;58645;43.068;25.610;2023-02-28T10:26:18;10.00;99.90
70986;DHT22;58645;43.068;25.610;2023-02-28T10:28:45;9.90;99.90
70986;DHT22;58645;43.068;25.610;2023-02-28T10:31:18;10.00;99.90
70986;DHT22;58645;43.068;25.610;2023-02-28T10:33:45;10.00;99.90
70986;DHT22;58645;43.068;25.610;2023-02-28T10:36:18;10.00;99.90
70986;DHT22;58645;43.068;25.610;2023-02-28T10:38:45;10.10;99.90
70986;DHT22;58645;43.068;25.610;2023-02-28T10:41:18;10.20;99.90
70986;DHT22;58645;43.068;25.610;2023-02-28T10:43:52;10.30;99.90
70986;DHT22;58645;43.068;25.610;2023-02-28T10:46:19;10.30;99.90
70986;DHT22;58645;43.068;25.610;2023-02-28T10:49:05;10.30;99.90
70986;DHT22;58645;43.068;25.610;2023-02-28T10:51:37;10.30;99.90
70986;DHT22;58645;43.068;25.610;2023-02-28T10:54:04;10.30;99.90
70986;DHT22;58645;43.068;25.610;2023-02-28T10:56:31;10.30;99.90
70986;DHT22;58645;43.068;25.610;2023-02-28T10:58:59;10.20;99.90
70986;DHT22;58645;43.068;25.610;2023-02-28T11:04:02;10.30;99.90
70986;DHT22;58645;43.068;25.610;2023-02-28T11:06:33;10.40;99.90
70986;DHT22;58645;43.068;25.610;2023-02-28T11:09:05;10.50;99.90
70986;DHT22;58645;43.068;25.610;2023-02-28T11:11:44;10.50;99.90
70986;DHT22;58645;43.068;25.610;2023-02-28T11:14:46;10.50;99.90
70986;DHT22;58645;43.068;25.610;2023-02-28T11:17:19;10.40;99.90
70986;DHT22;58645;43.068;25.610;2023-02-28T11:19:49;10.40;99.90
70986;DHT22;58645;43.068;25.610;2023-02-28T11:22:24;10.40;99.90
70986;DHT22;58645;43.068;25.610;2023-02-28T11:24:57;10.40;99.90
70986;DHT22;58645;43.068;25.610;2023-02-28T11:29:55;10.40;99.90
70986;DHT22;58645;43.068;25.610;2023-02-28T11:32:43;10.40;99.90
70986;DHT22;58645;43.068;25.610;2023-02-28T11:35:46;10.40;99.90
70986;DHT22;58645;43.068;25.610;2023-02-28T11:38:34;10.00;99.90
70986;DHT22;58645;43.068;25.610;2023-02-28T11:46:51;9.80;99.90
70986;DHT22;58645;43.068;25.610;2023-02-28T11:49:35;9.70;99.90
70986;DHT22;58645;43.068;25.610;2023-02-28T11:52:37;9.60;99.90
70986;DHT22;58645;43.068;25.610;2023-02-28T12:03:43;9.30;99.90
70986;DHT22;58645;43.068;25.610;2023-02-28T12:17:59;9.00;99.90
70986;DHT22;58645;43.068;25.610;2023-02-28T12:28:25;9.20;99.90
70986;DHT22;58645;43.068;25.610;2023-02-28T12:31:10;9.10;99.90
70986;DHT22;58645;43.068;25.610;2023-02-28T12:33:42;9.00;99.90
70986;DHT22;58645;43.068;25.610;2023-02-28T12:36:16;8.90;99.90
70986;DHT22;58645;43.068;25.610;2023-02-28T12:41:48;8.70;99.90
70986;DHT22;58645;43.068;25.610;2023-02-28T12:44:27;8.70;99.90
70986;DHT22;58645;43.068;25.610;2023-02-28T12:47:00;8.70;99.90
70986;DHT22;58645;43.068;25.610;2023-02-28T12:49:32;8.70;99.90
70986;DHT22;58645;43.068;25.610;2023-02-28T12:52:00;8.70;99.90
70986;DHT22;58645;43.068;25.610;2023-02-28T12:54:39;8.50;99.90
70986;DHT22;58645;43.068;25.610;2023-02-28T12:57:12;8.40;99.90
70986;DHT22;58645;43.068;25.610;2023-02-28T12:59:59;8.30;99.90
70986;DHT22;58645;43.068;25.610;2023-02-28T13:05:36;8.20;99.90
70986;DHT22;58645;43.068;25.610;2023-02-28T13:10:47;8.00;99.90
70986;DHT22;58645;43.068;25.610;2023-02-28T13:13:18;8.00;99.90
70986;DHT22;58645;43.068;25.610;2023-02-28T13:16:08;7.80;99.90
70986;DHT22;58645;43.068;25.610;2023-02-28T13:18:44;7.80;99.90
70986;DHT22;58645;43.068;25.610;2023-02-28T13:21:29;7.80;99.90
70986;DHT22;58645;43.068;25.610;2023-02-28T13:24:03;7.60;99.90
70986;DHT22;58645;43.068;25.610;2023-02-28T13:29:27;7.60;99.90
70986;DHT22;58645;43.068;25.610;2023-02-28T13:56:25;7.00;99.90
70986;DHT22;58645;43.068;25.610;2023-02-28T13:58:57;7.00;99.90
70986;DHT22;58645;43.068;25.610;2023-02-28T14:01:31;7.00;99.90
70986;DHT22;58645;43.068;25.610;2023-02-28T14:04:29;6.90;99.90
70986;DHT22;58645;43.068;25.610;2023-02-28T14:07:00;7.00;99.90
70986;DHT22;58645;43.068;25.610;2023-02-28T14:09:31;7.00;99.90
70986;DHT22;58645;43.068;25.610;2023-02-28T14:11:57;7.00;99.90
70986;DHT22;58645;43.068;25.610;2023-02-28T14:17:15;6.90;99.90
70986;DHT22;58645;43.068;25.610;2023-02-28T14:19:44;6.60;99.90
70986;DHT22;58645;43.068;25.610;2023-02-28T14:25:36;6.90;99.90
70986;DHT22;58645;43.068;25.610;2023-02-28T14:31:05;6.80;99.90
70986;DHT22;58645;43.068;25.610;2023-02-28T14:36:26;6.80;99.90
70986;DHT22;58645;43.068;25.610;2023-02-28T14:38:59;6.70;99.90
70986;DHT22;58645;43.068;25.610;2023-02-28T14:41:32;6.70;99.90
70986;DHT22;58645;43.068;25.610;2023-02-28T14:44:02;6.70;99.90
70986;DHT22;58645;43.068;25.610;2023-02-28T14:46:40;6.70;99.90
70986;DHT22;58645;43.068;25.610;2023-02-28T14:49:17;6.60;99.90
70986;DHT22;58645;43.068;25.610;2023-02-28T14:51:43;6.50;99.90
70986;DHT22;58645;43.068;25.610;2023-02-28T14:54:14;6.60;99.90
70986;DHT22;58645;43.068;25.610;2023-02-28T14:56:41;6.60;99.90
70986;DHT22;58645;43.068;25.610;2023-02-28T14:59:28;6.50;99.90
70986;DHT22;58645;43.068;25.610;2023-02-28T15:02:18;6.50;99.90
70986;DHT22;58645;43.068;25.610;2023-02-28T15:04:56;6.50;99.90
70986;DHT22;58645;43.068;25.610;2023-02-28T15:07:23;6.50;99.90
70986;DHT22;58645;43.068;25.610;2023-02-28T15:12:40;6.50;99.90
70986;DHT22;58645;43.068;25.610;2023-02-28T15:15:14;6.50;99.90
70986;DHT22;58645;43.068;25.610;2023-02-28T15:17:42;6.40;99.90
70986;DHT22;58645;43.068;25.610;2023-02-28T15:20:12;6.50;99.90
70986;DHT22;58645;43.068;25.610;2023-02-28T15:22:39;6.40;99.90
70986;DHT22;58645;43.068;25.610;2023-02-28T15:25:06;6.40;99.90
70986;DHT22;58645;43.068;25.610;2023-02-28T15:27:35;6.40;99.90
70986;DHT22;58645;43.068;25.610;2023-02-28T15:30:11;6.30;99.90
70986;DHT22;58645;43.068;25.610;2023-02-28T15:32:40;6.40;99.90
70986;DHT22;58645;43.068;25.610;2023-02-28T15:37:58;6.30;99.90
70986;DHT22;58645;43.068;25.610;2023-02-28T15:40:29;6.30;99.90
70986;DHT22;58645;43.068;25.610;2023-02-28T15:43:12;6.30;99.90
70986;DHT22;58645;43.068;25.610;2023-02-28T15:46:01;6.30;99.90
70986;DHT22;58645;43.068;25.610;2023-02-28T15:48:33;6.30;99.90
70986;DHT22;58645;43.068;25.610;2023-02-28T15:51:14;6.30;99.90
70986;DHT22;58645;43.068;25.610;2023-02-28T15:53:50;6.20;99.90
70986;DHT22;58645;43.068;25.610;2023-02-28T15:56:23;6.20;99.90
70986;DHT22;58645;43.068;25.610;2023-02-28T15:58:53;6.20;99.90
70986;DHT22;58645;43.068;25.610;2023-02-28T16:01:28;6.20;99.90
70986;DHT22;58645;43.068;25.610;2023-02-28T16:03:59;6.20;99.90
70986;DHT22;58645;43.068;25.610;2023-02-28T16:06:41;6.10;99.90
70986;DHT22;58645;43.068;25.610;2023-02-28T16:09:16;6.10;99.90
70986;DHT22;58645;43.068;25.610;2023-02-28T16:11:47;6.10;99.90
70986;DHT22;58645;43.068;25.610;2023-02-28T16:14:16;6.10;99.90
70986;DHT22;58645;43.068;25.610;2023-02-28T16:16:44;6.10;99.90
70986;DHT22;58645;43.068;25.610;2023-02-28T16:19:10;6.10;99.90
70986;DHT22;58645;43.068;25.610;2023-02-28T16:21:36;6.10;99.90
70986;DHT22;58645;43.068;25.610;2023-02-28T16:24:02;6.10;99.90
70986;DHT22;58645;43.068;25.610;2023-02-28T16:26:28;6.20;99.90
70986;DHT22;58645;43.068;25.610;2023-02-28T16:28:53;6.20;99.90
70986;DHT22;58645;43.068;25.610;2023-02-28T16:31:20;6.20;99.90
70986;DHT22;58645;43.068;25.610;2023-02-28T16:33:46;6.20;99.90
70986;DHT22;58645;43.068;25.610;2023-02-28T16:36:19;6.20;99.90
70986;DHT22;58645;43.068;25.610;2023-02-28T16:38:45;6.20;99.90
70986;DHT22;58645;43.068;25.610;2023-02-28T16:41:18;6.10;99.90
70986;DHT22;58645;43.068;25.610;2023-02-28T16:43:50;6.10;99.90
70986;DHT22;58645;43.068;25.610;2023-02-28T16:46:16;6.10;99.90
70986;DHT22;58645;43.068;25.610;2023-02-28T16:48:46;6.10;99.90
70986;DHT22;58645;43.068;25.610;2023-02-28T16:51:17;6.00;99.90
70986;DHT22;58645;43.068;25.610;2023-02-28T16:53:44;6.10;99.90
70986;DHT22;58645;43.068;25.610;2023-02-28T16:56:18;6.10;99.90
70986;DHT22;58645;43.068;25.610;2023-02-28T16:58:46;6.00;99.90
70986;DHT22;58645;43.068;25.610;2023-02-28T17:01:12;6.00;99.90
70986;DHT22;58645;43.068;25.610;2023-02-28T17:03:38;6.00;99.90
70986;DHT22;58645;43.068;25.610;2023-02-28T17:06:08;6.00;99.90
70986;DHT22;58645;43.068;25.610;2023-02-28T17:08:41;6.00;99.90
70986;DHT22;58645;43.068;25.610;2023-02-28T17:11:08;6.00;99.90
70986;DHT22;58645;43.068;25.610;2023-02-28T17:13:34;6.00;99.90
70986;DHT22;58645;43.068;25.610;2023-02-28T17:16:00;6.00;99.90
70986;DHT22;58645;43.068;25.610;2023-02-28T17:18:26;6.00;99.90
70986;DHT22;58645;43.068;25.610;2023-02-28T17:20:54;6.00;99.90
70986;DHT22;58645;43.068;25.610;2023-02-28T17:23:20;5.90;99.90
70986;DHT22;58645;43.068;25.610;2023-02-28T17:25:46;6.00;99.90
70986;DHT22;58645;43.068;25.610;2023-02-28T17:28:19;6.00;99.90
70986;DHT22;58645;43.068;25.610;2023-02-28T17:30:46;6.00;99.90
70986;DHT22;58645;43.068;25.610;2023-02-28T17:33:13;6.00;99.90
70986;DHT22;58645;43.068;25.610;2023-02-28T17:35:39;6.00;99.90
70986;DHT22;58645;43.068;25.610;2023-02-28T17:38:05;6.00;99.90
70986;DHT22;58645;43.068;25.610;2023-02-28T17:40:33;6.00;99.90
70986;DHT22;58645;43.068;25.610;2023-02-28T17:42:59;6.00;99.90
70986;DHT22;58645;43.068;25.610;2023-02-28T17:45:25;6.00;99.90
70986;DHT22;58645;43.068;25.610;2023-02-28T17:47:50;6.00;99.90
70986;DHT22;58645;43.068;25.610;2023-02-28T17:50:19;5.90;99.90
70986;DHT22;58645;43.068;25.610;2023-02-28T17:52:46;5.90;99.90
70986;DHT22;58645;43.068;25.610;2023-02-28T17:55:12;6.00;99.90
70986;DHT22;58645;43.068;25.610;2023-02-28T17:57:38;5.90;99.90
70986;DHT22;58645;43.068;25.610;2023-02-28T18:00:05;5.90;99.90